KRDR/RDR METAR and TAF weather

Enter ICAO airport designator
Station Type Date Time Source
KRDR METAR 2020/04/02 00:18 UTC NOAA

KRDR 020018Z AUTO 18006KT 10SM -RA OVC036 09/07 A2984 RMK AO2 RAE00RAB18 SLP117 FZRANO $


Station Type Date Time Source
KRDR Decoded METAR 2020/04/02 00:18 UTC NOAA

Grand Forks Air Force Base, ND, United States (KRDR) 47-58N 097-24W 278M
Apr 01, 2020 - 08:18 PM EDT / 2020.04.02 0018 UTC
Wind: from the S (180 degrees) at 7 MPH (6 KT):0
Visibility: 10 mile(s):0
Sky conditions: overcast
Weather: light rain
Temperature: 48 F (9 C)
Dew Point: 44 F (7 C)
Relative Humidity: 87%
Pressure (altimeter): 29.84 in. Hg (1010 hPa)
ob: KRDR 020018Z AUTO 18006KT 10SM -RA OVC036 09/07 A2984 RMK AO2 RAE00RAB18 SLP117 FZRANO
cycle: 0

Station Type Date Time Source
KRDR TAF 2020/04/01 18:09 UTC NOAA

TAF KRDR 011800Z 0118/0224 14012G20KT 9999 FEW045 OVC120 QNH2981INS
BECMG 0120/0121 14009KT 9000 -RA SCT015 BKN020 OVC050 620606 QNH2976INS
BECMG 0201/0202 30009KT 8000 -RA BR SCT005 OVC015 QNH2986INS
TEMPO 0207/0211 -FZRA 690001
BECMG 0210/0211 32012KT 3200 -SN OVC008 620089 QNH2994INS
BECMG 0216/0217 33012G20KT 9000 -SN OVC015 620159 QNH2999INS
BECMG 0221/0222 33012G20KT 9000 -SN BKN008 OVC030 620089 QNH3002INS TX10/0120Z TNM04/0216Z

Example: see airport list